MDLR/LRM METAR and TAF weather

Enter ICAO airport designator
Station Type Date Time Source
MDLR METAR 2019/02/17 16:00 UTC NOAA

MDLR 171600Z 12012KT 9999 FEW00CB SCT022 SCT070 29/23 Q1019 CB/NE/SE/SW


Station Type Date Time Source
MDLR Decoded METAR 2019/02/17 16:00 UTC NOAA

La Romana International Airport, Dominican Republic (MDLR) 18-25N 068-57W
Feb 17, 2019 - 11:00 AM EST / 2019.02.17 1600 UTC
Wind: from the ESE (120 degrees) at 14 MPH (12 KT):0
Visibility: greater than 7 mile(s):0
Sky conditions: partly cloudy
Weather: Cumulonimbus clouds observed
Temperature: 84 F (29 C)
Dew Point: 73 F (23 C)
Relative Humidity: 70%
Pressure (altimeter): 30.09 in. Hg (1019 hPa)
ob: MDLR 171600Z 12012KT 9999 FEW00CB SCT022 SCT070 29/23 Q1019 CB/NE/SE/SW
cycle: 16

Station Type Date Time Source
MDLR TAF 2019/02/17 12:03 UTC NOAA

TAF MDLR 171000Z 1712/1812 16012KT 9999 FEW020
BECMG 1800/1802 00000KT PROB30 1800/1804 7000 -SH SCT016 BKN070


Example: see airport list